Wakulla Springs, Florida
Current Conditions -  °F | °C
As of 2:53 PM on Thursday 23 Oct 2014 (Local Time) from KTLH Reporting Station
Clear Clear  
Wind Chill: 76°   Ceiling: Unl
Heat Index: 76°   Visibility: 10mi
Dew Point: 38°   Wind: 8mph
Humidity: 25%   Direction: 50°NE
Pressure: 30.01"   Gusts: NA
Location:  30.23°N, 84.31°W
Report Text: KTLH 231853Z 05007KT 10SM CLR 24/03 A3001 RMK AO2 SLP162 T02440033
Loading
Personal Weather Stations






























Interactive Weather Map
Tropical Storm Tracking
New forecast layout! Learn more

10-Day Weather Forecast

Advertisements
Track Severe Weather on mobile